首页
METAR-TAF:

METAR-TAF

机场 :

Daniel Field Airport

奥古斯塔, 喬治亞, 美国

纬度: 33-28-01N, 经度: 082-02-19W, 海拔: 128米

当前天气观测

该预报发布于52分钟前的22:53 UTC
风速8节,风向西北
温度 23°C
湿度 83%
气压 1017 hPa
能見度: 9.7公里
少量云层高于6000英尺
多云层高于10000英尺
阴天层高于12000英尺
小雨

METAR: KDNL 132253Z AUTO 32008KT 6SM -RA FEW060 BKN100 OVC120 23/20 A3002 RMK AO2 LTG DSNT NE SLP162 P0005 T02280200

时间: 19:45 (23:45 UTC)

预报

该预报发布于16分钟前的23:29 UTC
预报有效从14日的 00点(UTC)到 14日的 24点(UTC)
风速7节,风向西转西北
能見度: 10公里
散云层高于2500英尺
阴天层高于5000英尺, 积雨云.
小阵雨, 附近有雷暴
短暂存在
从 14日的 00点(UTC)到 14日的 04点(UTC)
能見度: 4.8公里
阴天层高于2500英尺
阵雨
从 14日的 0600点(UTC)
风速3节,风向多变
能見度: 10公里
散云层高于1500英尺
多云层高于3500英尺
短暂存在
从 14日的 08点(UTC)到 14日的 12点(UTC)
能見度: 4.8公里
多云层高于1500英尺
轻雾
从 14日的 1400点(UTC)
风速7节,风向西转西北
能見度: 10公里
天空无云

TAF: KDNL 132329Z 1400/1424 29007KT P6SM -SHRA VCTS SCT025 OVC050CB TEMPO 1400/1404 3SM SHRA OVC025 FM140600 VRB03KT P6SM SCT015 BKN035 TEMPO 1408/1412 3SM BR BKN015 FM141400 29007KT P6SM SKC

超过4000个机场的气象观测和天气预报(METAR&TAF报告)。

可查询的气象台以黄色和红色小点在地图上表示。

将鼠标移到小点上方,可查看气象台名称。

然后点击查看天气观测和预报。

如需切换地图:点击带黑十字的绿色按钮放大地图;点击带横线的绿色按钮缩小地图;或者点击绿色箭头查看邻近地区的地图。


METAR-TAF: